Tamon — JD2900 — position and weather

sailwx.info

Track history (hours):
 
Tides and Currents Weather Stations Pressure Air Temp Water Temp Dewpoint Dewpoint Depression Visibility Wind Speed Wind Dir Waves Ship Positions

Tamon

Last reported at 2017-Sep-19 08:54 UTC. Time now 2017-Sep-21 17:48 UTC.
Position N 34°35' E 134°50'.

Length 77 m; draft 4.5 m.

Type: Cargo ship. MMSI: 431000898.

Date/timePositionNaut miles runAvg speedWind from/ knotsBaromVisibWave heightAir tempDewpointWater temp
2017-Sep-19 08:54N 34°35' E 134°50'614.7
2017-Sep-19 08:30N 34°37' E 134°57'612.6
2017-Sep-19 08:00N 34°36' E 135°04'612.9
2017-Sep-19 07:30N 34°37' E 135°12'3 5.9
2017-Sep-19 07:00N 34°39' E 135°15'0 0.0
2017-Sep-19 06:30N 34°39' E 135°15'2 4.0
2017-Sep-19 06:00N 34°41' E 135°16'0 0.6
2017-Sep-19 05:30N 34°41' E 135°17'0 0.0
2017-Sep-19 05:00N 34°41' E 135°17'2 3.3
2017-Sep-19 04:30N 34°40' E 135°15'611.0
2017-Sep-19 04:00N 34°36' E 135°10'613.1
2017-Sep-19 03:30N 34°36' E 135°02'914.9
2017-Sep-19 02:56N 34°38' E 134°52'6 1.0
2017-Sep-18 21:12N 34°41' E 134°46'713.3
2017-Sep-18 20:42N 34°37' E 134°53'313.3
2017-Sep-18 20:30N 34°37' E 134°56'612.0
2017-Sep-18 20:00N 34°36' E 135°03'612.6
2017-Sep-18 19:30N 34°37' E 135°11'5 9.7
2017-Sep-18 19:00N 34°40' E 135°15'1 3.0
2017-Sep-18 18:30N 34°40' E 135°13'0 0.0
2017-Sep-18 18:00N 34°40' E 135°13'0 0.0
2017-Sep-18 17:30N 34°40' E 135°13'0 0.0
2017-Sep-18 17:00N 34°40' E 135°13'0 0.0
2017-Sep-18 16:30N 34°40' E 135°13'0 0.0
2017-Sep-18 16:00N 34°40' E 135°13'0 0.0
2017-Sep-18 15:30N 34°40' E 135°13'0 0.0
2017-Sep-18 15:00N 34°40' E 135°13'0 0.0
2017-Sep-18 14:30N 34°40' E 135°13'0 0.0
2017-Sep-18 14:00N 34°40' E 135°13'0 0.0
2017-Sep-18 13:30N 34°40' E 135°13'0 0.0
2017-Sep-18 13:00N 34°40' E 135°13'0 0.0
2017-Sep-18 12:30N 34°40' E 135°13'0 0.0
2017-Sep-18 12:00N 34°40' E 135°13'0 0.0
2017-Sep-18 11:30N 34°40' E 135°13'0 0.0
2017-Sep-18 11:00N 34°40' E 135°13'0 0.0
2017-Sep-18 10:30N 34°40' E 135°13'0 0.0
2017-Sep-18 10:00N 34°40' E 135°13'0 0.0
2017-Sep-18 09:30N 34°40' E 135°13'0 0.0
2017-Sep-18 09:00N 34°40' E 135°13'0 0.0
2017-Sep-18 08:30N 34°40' E 135°13'0 0.0
2017-Sep-18 08:00N 34°40' E 135°13'0 0.0
2017-Sep-18 07:30N 34°40' E 135°13'0 0.0
2017-Sep-18 07:00N 34°40' E 135°13'0 0.0
2017-Sep-18 06:30N 34°40' E 135°13'0 0.0
2017-Sep-18 06:00N 34°40' E 135°13'0 0.0
2017-Sep-18 05:30N 34°40' E 135°13'0 0.0
2017-Sep-18 05:00N 34°40' E 135°13'0 0.0
2017-Sep-18 04:30N 34°40' E 135°13'0 0.0
2017-Sep-18 04:00N 34°40' E 135°13'0 0.0
2017-Sep-18 03:30N 34°40' E 135°13'0 0.0
2017-Sep-18 03:00N 34°40' E 135°13'0 0.0
2017-Sep-18 02:30N 34°40' E 135°13'0 0.0
2017-Sep-18 02:00N 34°40' E 135°13'0 0.0
2017-Sep-18 01:30N 34°40' E 135°13'0 0.1
2017-Sep-18 01:00N 34°40' E 135°13'3 5.6
2017-Sep-18 00:30N 34°41' E 135°17'0 0.0
2017-Sep-18 00:00N 34°41' E 135°17'0 0.0
2017-Sep-17 23:30N 34°41' E 135°17'2 4.3
2017-Sep-17 23:00N 34°42' E 135°19'0 0.1
2017-Sep-17 22:30N 34°42' E 135°19'0 0.0
2017-Sep-17 22:00N 34°42' E 135°19'0 0.0
2017-Sep-17 21:30N 34°42' E 135°19'0 0.0
2017-Sep-17 21:00N 34°42' E 135°19'0 0.0
2017-Sep-17 20:30N 34°42' E 135°19'0 0.0
2017-Sep-17 20:00N 34°42' E 135°19'0 0.0
2017-Sep-17 19:30N 34°42' E 135°19'0 0.0
2017-Sep-17 19:00N 34°42' E 135°19'0 0.0
2017-Sep-17 18:30N 34°42' E 135°19'0 0.0
2017-Sep-17 18:00N 34°42' E 135°19'0 0.0
2017-Sep-17 17:30N 34°42' E 135°19'0 0.0
2017-Sep-17 17:00N 34°42' E 135°19'0 0.0
2017-Sep-17 16:30N 34°42' E 135°19'0 0.0
2017-Sep-17 16:00N 34°42' E 135°19'0 0.0
2017-Sep-17 15:30N 34°42' E 135°19'0 0.0
2017-Sep-17 15:00N 34°42' E 135°19'0 0.0
2017-Sep-17 14:30N 34°42' E 135°19'0 0.0
2017-Sep-17 14:00N 34°42' E 135°19'0 0.1
2017-Sep-17 13:30N 34°42' E 135°19'0 0.0
2017-Sep-17 13:00N 34°42' E 135°19'0 0.2
2017-Sep-17 12:30N 34°42' E 135°19'0 0.2
2017-Sep-17 12:00N 34°42' E 135°19'0 0.0
2017-Sep-17 11:30N 34°42' E 135°19'0 0.0
2017-Sep-17 11:00N 34°42' E 135°19'0 0.0
2017-Sep-17 10:30N 34°42' E 135°19'0 0.0
2017-Sep-17 10:00N 34°42' E 135°19'0 0.0
2017-Sep-17 09:30N 34°42' E 135°19'0 0.0
2017-Sep-17 09:00N 34°42' E 135°19'0 0.0
2017-Sep-17 08:30N 34°42' E 135°19'0 0.0
2017-Sep-17 08:00N 34°42' E 135°19'0 0.0
2017-Sep-17 07:30N 34°42' E 135°19'0 0.0
2017-Sep-17 07:00N 34°42' E 135°19'0 0.0
2017-Sep-17 06:30N 34°42' E 135°19'0 0.0
2017-Sep-17 06:00N 34°42' E 135°19'0 0.0
2017-Sep-17 05:30N 34°42' E 135°19'0 0.0
2017-Sep-17 05:00N 34°42' E 135°19'0 0.0
2017-Sep-17 04:30N 34°42' E 135°19'0 0.0
2017-Sep-17 04:00N 34°42' E 135°19'0 0.0
2017-Sep-17 03:30N 34°42' E 135°19'0 0.0
2017-Sep-17 03:00N 34°42' E 135°19'0 0.0
2017-Sep-17 02:30N 34°42' E 135°19'0 0.0
2017-Sep-17 02:00N 34°42' E 135°19'0 0.0
2017-Sep-17 01:30N 34°42' E 135°19'0 0.0
2017-Sep-17 01:00N 34°42' E 135°19'0 0.0
2017-Sep-17 00:30N 34°42' E 135°19'0 0.0
2017-Sep-17 00:00N 34°42' E 135°19'0 0.0
2017-Sep-16 23:30N 34°42' E 135°19'0 0.0
2017-Sep-16 23:00N 34°42' E 135°19'0 0.0
2017-Sep-16 22:30N 34°42' E 135°19'0 0.0
2017-Sep-16 22:00N 34°42' E 135°19'0 0.0
2017-Sep-16 21:30N 34°42' E 135°19'0 0.0
2017-Sep-16 21:00N 34°42' E 135°19'0 0.0
2017-Sep-16 20:30N 34°42' E 135°19'0 0.0
2017-Sep-16 20:00N 34°42' E 135°19'0 0.0
2017-Sep-16 19:30N 34°42' E 135°19'0 0.0
2017-Sep-16 19:00N 34°42' E 135°19'0 0.0
2017-Sep-16 18:30N 34°42' E 135°19'0 0.0
2017-Sep-16 18:00N 34°42' E 135°19'0 0.0
2017-Sep-16 17:30N 34°42' E 135°19'0 0.0
2017-Sep-16 17:00N 34°42' E 135°19'0 0.0
2017-Sep-16 16:30N 34°42' E 135°19'0 0.0
2017-Sep-16 16:00N 34°42' E 135°19'0 0.0
2017-Sep-16 15:30N 34°42' E 135°19'0 0.1
2017-Sep-16 15:00N 34°42' E 135°19'0 0.0
2017-Sep-16 14:30N 34°42' E 135°19'0 0.0
2017-Sep-16 14:00N 34°42' E 135°19'0 0.0
2017-Sep-16 13:30N 34°42' E 135°19'0 0.0
2017-Sep-16 13:00N 34°42' E 135°19'0 0.0
2017-Sep-16 12:30N 34°42' E 135°19'0 0.0
2017-Sep-16 12:00N 34°42' E 135°19'0 0.1
2017-Sep-16 11:30N 34°42' E 135°19'0 0.1
2017-Sep-16 11:00N 34°42' E 135°19'0 0.0
2017-Sep-16 10:30N 34°42' E 135°19'0 0.0
2017-Sep-16 10:00N 34°42' E 135°19'0 0.0
2017-Sep-16 09:30N 34°42' E 135°19'0 0.0
2017-Sep-16 09:00N 34°42' E 135°19'0 0.0
2017-Sep-16 08:30N 34°42' E 135°19'0 0.1
2017-Sep-16 08:00N 34°42' E 135°19'2 4.0
2017-Sep-16 07:30N 34°41' E 135°17'0 0.1
2017-Sep-16 07:00N 34°41' E 135°17'0 0.1
2017-Sep-16 06:30N 34°41' E 135°17'0 0.1
2017-Sep-16 06:00N 34°41' E 135°17'0 0.1
2017-Sep-16 05:30N 34°41' E 135°17'0 0.1
2017-Sep-16 05:00N 34°41' E 135°17'0 0.0
2017-Sep-16 04:30N 34°41' E 135°17'0 0.4
2017-Sep-16 04:00N 34°41' E 135°16'4 8.0
2017-Sep-16 03:30N 34°38' E 135°13'611.9
2017-Sep-16 03:00N 34°35' E 135°07'14 0.3
2017-Sep-14 09:33N 34°35' E 134°50'313.7
2017-Sep-14 09:22N 34°36' E 134°53'513.5
2017-Sep-14 08:59N 34°37' E 134°58'612.8
2017-Sep-14 08:30N 34°36' E 135°06'713.2
2017-Sep-14 08:00N 34°37' E 135°13'4 8.9
2017-Sep-14 07:30N 34°41' E 135°17'0 0.1
2017-Sep-14 07:00N 34°41' E 135°17'0 0.4
2017-Sep-14 06:30N 34°41' E 135°17'0 0.1
2017-Sep-14 06:00N 34°41' E 135°17'0 0.1
2017-Sep-14 05:30N 34°41' E 135°17'0 0.2
2017-Sep-14 05:00N 34°41' E 135°16'1 1.4
2017-Sep-14 04:30N 34°40' E 135°16'1 2.6
2017-Sep-14 04:00N 34°40' E 135°14'0 0.0
2017-Sep-14 03:31N 34°40' E 135°14'0 0.0
2017-Sep-14 03:00N 34°40' E 135°14'0 0.0
2017-Sep-14 02:30N 34°40' E 135°14'1 1.2
2017-Sep-14 02:00N 34°39' E 135°15'612.1
2017-Sep-14 01:30N 34°39' E 135°22'3 1.6
2017-Sep-13 23:24N 34°38' E 135°26'2 3.9
2017-Sep-13 23:00N 34°39' E 135°25'2 4.7
2017-Sep-13 22:30N 34°37' E 135°23'0 0.0
2017-Sep-13 22:00N 34°37' E 135°23'0 0.0
2017-Sep-13 21:30N 34°37' E 135°23'0 0.0
2017-Sep-13 21:00N 34°37' E 135°23'0 0.0
2017-Sep-13 20:30N 34°37' E 135°23'0 0.0
2017-Sep-13 20:00N 34°37' E 135°23'0 0.0
2017-Sep-13 19:30N 34°37' E 135°23'0 0.0
2017-Sep-13 19:00N 34°37' E 135°23'0 0.0
2017-Sep-13 18:30N 34°37' E 135°23'0 0.0
2017-Sep-13 18:00N 34°37' E 135°23'0 0.0
2017-Sep-13 17:30N 34°37' E 135°23'0 0.0
2017-Sep-13 17:00N 34°37' E 135°23'0 0.0
2017-Sep-13 16:30N 34°37' E 135°23'0 0.0
2017-Sep-13 15:59N 34°37' E 135°23'0 0.0
2017-Sep-13 15:30N 34°37' E 135°23'0 0.0
2017-Sep-13 15:00N 34°37' E 135°23'0 0.0
2017-Sep-13 14:30N 34°37' E 135°23'0 0.0
2017-Sep-13 14:00N 34°37' E 135°23'0 0.0
2017-Sep-13 13:29N 34°37' E 135°23'0 0.0
2017-Sep-13 13:00N 34°37' E 135°23'0 0.0
2017-Sep-13 12:30N 34°37' E 135°23'0 0.0
2017-Sep-13 12:00N 34°37' E 135°23'0 0.1
2017-Sep-13 11:30N 34°37' E 135°23'0 0.1
2017-Sep-13 11:00N 34°37' E 135°23'0 0.1
2017-Sep-13 10:30N 34°37' E 135°23'0 0.0
2017-Sep-13 10:00N 34°37' E 135°23'0 0.0
2017-Sep-13 09:30N 34°37' E 135°23'0 0.0
2017-Sep-13 09:00N 34°37' E 135°23'0 0.0
2017-Sep-13 08:30N 34°37' E 135°23'0 0.0
2017-Sep-13 08:00N 34°37' E 135°23'0 0.0
2017-Sep-13 07:30N 34°37' E 135°23'0 0.0
2017-Sep-13 07:00N 34°37' E 135°23'2 3.3
2017-Sep-13 06:30N 34°39' E 135°22'612.0
2017-Sep-13 06:00N 34°40' E 135°15'0 0.5
2017-Sep-13 05:30N 34°40' E 135°14'0 0.5
2017-Sep-13 05:00N 34°40' E 135°15'1 2.5
2017-Sep-13 04:30N 34°40' E 135°13'0 0.1
2017-Sep-13 04:00N 34°40' E 135°13'0 0.0
2017-Sep-13 03:30N 34°40' E 135°13'0 0.0
2017-Sep-13 03:00N 34°40' E 135°13'0 0.0
2017-Sep-13 02:30N 34°40' E 135°13'0 0.0
2017-Sep-13 02:00N 34°40' E 135°13'0 0.0
2017-Sep-13 01:30N 34°40' E 135°13'0 0.0
2017-Sep-13 01:00N 34°40' E 135°13'0 0.0
2017-Sep-13 00:30N 34°40' E 135°13'0 0.0
2017-Sep-13 00:00N 34°40' E 135°13'0 0.0
2017-Sep-12 23:30N 34°40' E 135°13'0 0.0
2017-Sep-12 23:00N 34°40' E 135°13'2 3.8
2017-Sep-12 22:30N 34°39' E 135°15'0 0.2
2017-Sep-12 22:00N 34°39' E 135°15'0 0.0
2017-Sep-12 21:30N 34°39' E 135°15'0 0.1
2017-Sep-12 21:00N 34°39' E 135°15'0 0.0
2017-Sep-12 20:30N 34°39' E 135°15'0 0.1
2017-Sep-12 20:00N 34°39' E 135°15'0 0.0
2017-Sep-12 19:30N 34°39' E 135°15'0 0.0
2017-Sep-12 19:00N 34°39' E 135°15'0 0.1
2017-Sep-12 18:30N 34°39' E 135°15'510.4
2017-Sep-12 18:00N 34°36' E 135°10'611.7
2017-Sep-12 17:30N 34°36' E 135°02'611.6
2017-Sep-12 17:00N 34°36' E 134°56'2 0.1
2017-Sep-11 04:20N 34°36' E 134°53'513.6
2017-Sep-11 03:59N 34°37' E 134°58'613.3
2017-Sep-11 03:30N 34°36' E 135°06'613.0
2017-Sep-11 03:00N 34°37' E 135°13'2 4.1
2017-Sep-11 02:30N 34°39' E 135°15'0 0.3
2017-Sep-11 02:00N 34°39' E 135°15'0 0.0
2017-Sep-11 01:30N 34°39' E 135°15'0 0.5
2017-Sep-11 01:00N 34°39' E 135°15'0 0.5
2017-Sep-11 00:30N 34°39' E 135°15'2 3.9
2017-Sep-11 00:00N 34°41' E 135°17'0 0.0
2017-Sep-10 23:30N 34°41' E 135°17'2 3.4
2017-Sep-10 23:01N 34°41' E 135°15'1 2.4
2017-Sep-10 22:30N 34°40' E 135°13'0 0.0
2017-Sep-10 22:00N 34°40' E 135°13'0 0.0
2017-Sep-10 21:30N 34°40' E 135°13'0 0.0
2017-Sep-10 21:00N 34°40' E 135°13'0 0.0
2017-Sep-10 20:30N 34°40' E 135°13'0 0.0
2017-Sep-10 20:00N 34°40' E 135°13'0 0.0
2017-Sep-10 19:30N 34°40' E 135°13'0 0.0
2017-Sep-10 19:00N 34°40' E 135°13'0 0.0
2017-Sep-10 18:30N 34°40' E 135°13'0 0.0
2017-Sep-10 18:00N 34°40' E 135°13'0 0.0
2017-Sep-10 17:30N 34°40' E 135°13'0 0.0
2017-Sep-10 17:00N 34°40' E 135°13'0 0.0
2017-Sep-10 16:30N 34°40' E 135°13'0 0.0
2017-Sep-10 16:00N 34°40' E 135°13'0 0.0
2017-Sep-10 15:30N 34°40' E 135°13'0 0.0
2017-Sep-10 15:00N 34°40' E 135°13'0 0.0
2017-Sep-10 14:00N 34°40' E 135°13'0 0.0
2017-Sep-10 13:30N 34°40' E 135°13'0 0.0
2017-Sep-10 13:00N 34°40' E 135°13'0 0.0
2017-Sep-10 12:30N 34°40' E 135°13'0 0.0
2017-Sep-10 12:00N 34°40' E 135°13'0 0.0
2017-Sep-10 11:30N 34°40' E 135°13'0 0.0
2017-Sep-10 11:00N 34°40' E 135°13'0 0.0
2017-Sep-10 10:30N 34°40' E 135°13'0 0.0
2017-Sep-10 10:00N 34°40' E 135°13'0 0.0
2017-Sep-10 09:30N 34°40' E 135°13'0 0.0
2017-Sep-10 09:00N 34°40' E 135°13'0 0.0
2017-Sep-10 08:30N 34°40' E 135°13'0 0.0
2017-Sep-10 08:00N 34°40' E 135°13'0 0.0
2017-Sep-10 07:30N 34°40' E 135°13'0 0.0
2017-Sep-10 07:00N 34°40' E 135°13'0 0.0
2017-Sep-10 06:30N 34°40' E 135°13'0 0.0
2017-Sep-10 06:00N 34°40' E 135°13'0 0.0
2017-Sep-10 05:30N 34°40' E 135°13'0 0.0
2017-Sep-10 05:00N 34°40' E 135°13'0 0.0
2017-Sep-10 04:30N 34°40' E 135°13'0 0.0
2017-Sep-10 04:00N 34°40' E 135°13'0 0.0
2017-Sep-10 03:30N 34°40' E 135°13'0 0.0
2017-Sep-10 03:00N 34°40' E 135°13'0 0.0
2017-Sep-10 02:30N 34°40' E 135°13'0 0.0
2017-Sep-10 02:00N 34°40' E 135°13'0 0.0
2017-Sep-10 01:30N 34°40' E 135°13'2 3.7
2017-Sep-10 01:01N 34°39' E 135°15'611.2
2017-Sep-10 00:30N 34°36' E 135°09'510.7
2017-Sep-10 00:00N 34°36' E 135°03'6 9.4
2017-Sep-09 23:25N 34°36' E 134°56'  
Track history (hours):
 
Tides and Currents Weather Stations Pressure Air Temp Water Temp Dewpoint Dewpoint Depression Visibility Wind Speed Wind Dir Waves Ship Positions

Tamon

Last reported at 2017-Sep-19 08:54 UTC. Time now 2017-Sep-21 17:48 UTC.
Position N 34°35' E 134°50'.

Length 77 m; draft 4.5 m.

Type: Cargo ship. MMSI: 431000898.

Date/timePositionNaut miles runAvg speedWind from/ knotsBaromVisibWave heightAir tempDewpointWater temp
2017-Sep-19 08:54N 34°35' E 134°50'614.7
2017-Sep-19 08:30N 34°37' E 134°57'612.6
2017-Sep-19 08:00N 34°36' E 135°04'612.9
2017-Sep-19 07:30N 34°37' E 135°12'3 5.9
2017-Sep-19 07:00N 34°39' E 135°15'0 0.0
2017-Sep-19 06:30N 34°39' E 135°15'2 4.0
2017-Sep-19 06:00N 34°41' E 135°16'0 0.6
2017-Sep-19 05:30N 34°41' E 135°17'0 0.0
2017-Sep-19 05:00N 34°41' E 135°17'2 3.3
2017-Sep-19 04:30N 34°40' E 135°15'611.0
2017-Sep-19 04:00N 34°36' E 135°10'613.1
2017-Sep-19 03:30N 34°36' E 135°02'914.9
2017-Sep-19 02:56N 34°38' E 134°52'6 1.0
2017-Sep-18 21:12N 34°41' E 134°46'713.3
2017-Sep-18 20:42N 34°37' E 134°53'313.3
2017-Sep-18 20:30N 34°37' E 134°56'612.0
2017-Sep-18 20:00N 34°36' E 135°03'612.6
2017-Sep-18 19:30N 34°37' E 135°11'5 9.7
2017-Sep-18 19:00N 34°40' E 135°15'1 3.0
2017-Sep-18 18:30N 34°40' E 135°13'0 0.0
2017-Sep-18 18:00N 34°40' E 135°13'0 0.0
2017-Sep-18 17:30N 34°40' E 135°13'0 0.0
2017-Sep-18 17:00N 34°40' E 135°13'0 0.0
2017-Sep-18 16:30N 34°40' E 135°13'0 0.0
2017-Sep-18 16:00N 34°40' E 135°13'0 0.0
2017-Sep-18 15:30N 34°40' E 135°13'0 0.0
2017-Sep-18 15:00N 34°40' E 135°13'0 0.0
2017-Sep-18 14:30N 34°40' E 135°13'0 0.0
2017-Sep-18 14:00N 34°40' E 135°13'0 0.0
2017-Sep-18 13:30N 34°40' E 135°13'0 0.0
2017-Sep-18 13:00N 34°40' E 135°13'0 0.0
2017-Sep-18 12:30N 34°40' E 135°13'0 0.0
2017-Sep-18 12:00N 34°40' E 135°13'0 0.0
2017-Sep-18 11:30N 34°40' E 135°13'0 0.0
2017-Sep-18 11:00N 34°40' E 135°13'0 0.0
2017-Sep-18 10:30N 34°40' E 135°13'0 0.0
2017-Sep-18 10:00N 34°40' E 135°13'0 0.0
2017-Sep-18 09:30N 34°40' E 135°13'0 0.0
2017-Sep-18 09:00N 34°40' E 135°13'0 0.0
2017-Sep-18 08:30N 34°40' E 135°13'0 0.0
2017-Sep-18 08:00N 34°40' E 135°13'0 0.0
2017-Sep-18 07:30N 34°40' E 135°13'0 0.0
2017-Sep-18 07:00N 34°40' E 135°13'0 0.0
2017-Sep-18 06:30N 34°40' E 135°13'0 0.0
2017-Sep-18 06:00N 34°40' E 135°13'0 0.0
2017-Sep-18 05:30N 34°40' E 135°13'0 0.0
2017-Sep-18 05:00N 34°40' E 135°13'0 0.0
2017-Sep-18 04:30N 34°40' E 135°13'0 0.0
2017-Sep-18 04:00N 34°40' E 135°13'0 0.0
2017-Sep-18 03:30N 34°40' E 135°13'0 0.0
2017-Sep-18 03:00N 34°40' E 135°13'0 0.0
2017-Sep-18 02:30N 34°40' E 135°13'0 0.0
2017-Sep-18 02:00N 34°40' E 135°13'0 0.0
2017-Sep-18 01:30N 34°40' E 135°13'0 0.1
2017-Sep-18 01:00N 34°40' E 135°13'3 5.6
2017-Sep-18 00:30N 34°41' E 135°17'0 0.0
2017-Sep-18 00:00N 34°41' E 135°17'0 0.0
2017-Sep-17 23:30N 34°41' E 135°17'2 4.3
2017-Sep-17 23:00N 34°42' E 135°19'0 0.1
2017-Sep-17 22:30N 34°42' E 135°19'0 0.0
2017-Sep-17 22:00N 34°42' E 135°19'0 0.0
2017-Sep-17 21:30N 34°42' E 135°19'0 0.0
2017-Sep-17 21:00N 34°42' E 135°19'0 0.0
2017-Sep-17 20:30N 34°42' E 135°19'0 0.0
2017-Sep-17 20:00N 34°42' E 135°19'0 0.0
2017-Sep-17 19:30N 34°42' E 135°19'0 0.0
2017-Sep-17 19:00N 34°42' E 135°19'0 0.0
2017-Sep-17 18:30N 34°42' E 135°19'0 0.0
2017-Sep-17 18:00N 34°42' E 135°19'0 0.0
2017-Sep-17 17:30N 34°42' E 135°19'0 0.0
2017-Sep-17 17:00N 34°42' E 135°19'0 0.0
2017-Sep-17 16:30N 34°42' E 135°19'0 0.0
2017-Sep-17 16:00N 34°42' E 135°19'0 0.0
2017-Sep-17 15:30N 34°42' E 135°19'0 0.0
2017-Sep-17 15:00N 34°42' E 135°19'0 0.0
2017-Sep-17 14:30N 34°42' E 135°19'0 0.0
2017-Sep-17 14:00N 34°42' E 135°19'0 0.1
2017-Sep-17 13:30N 34°42' E 135°19'0 0.0
2017-Sep-17 13:00N 34°42' E 135°19'0 0.2
2017-Sep-17 12:30N 34°42' E 135°19'0 0.2
2017-Sep-17 12:00N 34°42' E 135°19'0 0.0
2017-Sep-17 11:30N 34°42' E 135°19'0 0.0
2017-Sep-17 11:00N 34°42' E 135°19'0 0.0
2017-Sep-17 10:30N 34°42' E 135°19'0 0.0
2017-Sep-17 10:00N 34°42' E 135°19'0 0.0
2017-Sep-17 09:30N 34°42' E 135°19'0 0.0
2017-Sep-17 09:00N 34°42' E 135°19'0 0.0
2017-Sep-17 08:30N 34°42' E 135°19'0 0.0
2017-Sep-17 08:00N 34°42' E 135°19'0 0.0
2017-Sep-17 07:30N 34°42' E 135°19'0 0.0
2017-Sep-17 07:00N 34°42' E 135°19'0 0.0
2017-Sep-17 06:30N 34°42' E 135°19'0 0.0
2017-Sep-17 06:00N 34°42' E 135°19'0 0.0
2017-Sep-17 05:30N 34°42' E 135°19'0 0.0
2017-Sep-17 05:00N 34°42' E 135°19'0 0.0
2017-Sep-17 04:30N 34°42' E 135°19'0 0.0
2017-Sep-17 04:00N 34°42' E 135°19'0 0.0
2017-Sep-17 03:30N 34°42' E 135°19'0 0.0
2017-Sep-17 03:00N 34°42' E 135°19'0 0.0
2017-Sep-17 02:30N 34°42' E 135°19'0 0.0
2017-Sep-17 02:00N 34°42' E 135°19'0 0.0
2017-Sep-17 01:30N 34°42' E 135°19'0 0.0
2017-Sep-17 01:00N 34°42' E 135°19'0 0.0
2017-Sep-17 00:30N 34°42' E 135°19'0 0.0
2017-Sep-17 00:00N 34°42' E 135°19'0 0.0
2017-Sep-16 23:30N 34°42' E 135°19'0 0.0
2017-Sep-16 23:00N 34°42' E 135°19'0 0.0
2017-Sep-16 22:30N 34°42' E 135°19'0 0.0
2017-Sep-16 22:00N 34°42' E 135°19'0 0.0
2017-Sep-16 21:30N 34°42' E 135°19'0 0.0
2017-Sep-16 21:00N 34°42' E 135°19'0 0.0
2017-Sep-16 20:30N 34°42' E 135°19'0 0.0
2017-Sep-16 20:00N 34°42' E 135°19'0 0.0
2017-Sep-16 19:30N 34°42' E 135°19'0 0.0
2017-Sep-16 19:00N 34°42' E 135°19'0 0.0
2017-Sep-16 18:30N 34°42' E 135°19'0 0.0
2017-Sep-16 18:00N 34°42' E 135°19'0 0.0
2017-Sep-16 17:30N 34°42' E 135°19'0 0.0
2017-Sep-16 17:00N 34°42' E 135°19'0 0.0
2017-Sep-16 16:30N 34°42' E 135°19'0 0.0
2017-Sep-16 16:00N 34°42' E 135°19'0 0.0
2017-Sep-16 15:30N 34°42' E 135°19'0 0.1
2017-Sep-16 15:00N 34°42' E 135°19'0 0.0
2017-Sep-16 14:30N 34°42' E 135°19'0 0.0
2017-Sep-16 14:00N 34°42' E 135°19'0 0.0
2017-Sep-16 13:30N 34°42' E 135°19'0 0.0
2017-Sep-16 13:00N 34°42' E 135°19'0 0.0
2017-Sep-16 12:30N 34°42' E 135°19'0 0.0
2017-Sep-16 12:00N 34°42' E 135°19'0 0.1
2017-Sep-16 11:30N 34°42' E 135°19'0 0.1
2017-Sep-16 11:00N 34°42' E 135°19'0 0.0
2017-Sep-16 10:30N 34°42' E 135°19'0 0.0
2017-Sep-16 10:00N 34°42' E 135°19'0 0.0
2017-Sep-16 09:30N 34°42' E 135°19'0 0.0
2017-Sep-16 09:00N 34°42' E 135°19'0 0.0
2017-Sep-16 08:30N 34°42' E 135°19'0 0.1
2017-Sep-16 08:00N 34°42' E 135°19'2 4.0
2017-Sep-16 07:30N 34°41' E 135°17'0 0.1
2017-Sep-16 07:00N 34°41' E 135°17'0 0.1
2017-Sep-16 06:30N 34°41' E 135°17'0 0.1
2017-Sep-16 06:00N 34°41' E 135°17'0 0.1
2017-Sep-16 05:30N 34°41' E 135°17'0 0.1
2017-Sep-16 05:00N 34°41' E 135°17'0 0.0
2017-Sep-16 04:30N 34°41' E 135°17'0 0.4
2017-Sep-16 04:00N 34°41' E 135°16'4 8.0
2017-Sep-16 03:30N 34°38' E 135°13'611.9
2017-Sep-16 03:00N 34°35' E 135°07'14 0.3
2017-Sep-14 09:33N 34°35' E 134°50'313.7
2017-Sep-14 09:22N 34°36' E 134°53'513.5
2017-Sep-14 08:59N 34°37' E 134°58'612.8
2017-Sep-14 08:30N 34°36' E 135°06'713.2
2017-Sep-14 08:00N 34°37' E 135°13'4 8.9
2017-Sep-14 07:30N 34°41' E 135°17'0 0.1
2017-Sep-14 07:00N 34°41' E 135°17'0 0.4
2017-Sep-14 06:30N 34°41' E 135°17'0 0.1
2017-Sep-14 06:00N 34°41' E 135°17'0 0.1
2017-Sep-14 05:30N 34°41' E 135°17'0 0.2
2017-Sep-14 05:00N 34°41' E 135°16'1 1.4
2017-Sep-14 04:30N 34°40' E 135°16'1 2.6
2017-Sep-14 04:00N 34°40' E 135°14'0 0.0
2017-Sep-14 03:31N 34°40' E 135°14'0 0.0
2017-Sep-14 03:00N 34°40' E 135°14'0 0.0
2017-Sep-14 02:30N 34°40' E 135°14'1 1.2
2017-Sep-14 02:00N 34°39' E 135°15'612.1
2017-Sep-14 01:30N 34°39' E 135°22'3 1.6
2017-Sep-13 23:24N 34°38' E 135°26'2 3.9
2017-Sep-13 23:00N 34°39' E 135°25'2 4.7
2017-Sep-13 22:30N 34°37' E 135°23'0 0.0
2017-Sep-13 22:00N 34°37' E 135°23'0 0.0
2017-Sep-13 21:30N 34°37' E 135°23'0 0.0
2017-Sep-13 21:00N 34°37' E 135°23'0 0.0
2017-Sep-13 20:30N 34°37' E 135°23'0 0.0
2017-Sep-13 20:00N 34°37' E 135°23'0 0.0
2017-Sep-13 19:30N 34°37' E 135°23'0 0.0
2017-Sep-13 19:00N 34°37' E 135°23'0 0.0
2017-Sep-13 18:30N 34°37' E 135°23'0 0.0
2017-Sep-13 18:00N 34°37' E 135°23'0 0.0
2017-Sep-13 17:30N 34°37' E 135°23'0 0.0
2017-Sep-13 17:00N 34°37' E 135°23'0 0.0
2017-Sep-13 16:30N 34°37' E 135°23'0 0.0
2017-Sep-13 15:59N 34°37' E 135°23'0 0.0
2017-Sep-13 15:30N 34°37' E 135°23'0 0.0
2017-Sep-13 15:00N 34°37' E 135°23'0 0.0
2017-Sep-13 14:30N 34°37' E 135°23'0 0.0
2017-Sep-13 14:00N 34°37' E 135°23'0 0.0
2017-Sep-13 13:29N 34°37' E 135°23'0 0.0
2017-Sep-13 13:00N 34°37' E 135°23'0 0.0
2017-Sep-13 12:30N 34°37' E 135°23'0 0.0
2017-Sep-13 12:00N 34°37' E 135°23'0 0.1
2017-Sep-13 11:30N 34°37' E 135°23'0 0.1
2017-Sep-13 11:00N 34°37' E 135°23'0 0.1
2017-Sep-13 10:30N 34°37' E 135°23'0 0.0
2017-Sep-13 10:00N 34°37' E 135°23'0 0.0
2017-Sep-13 09:30N 34°37' E 135°23'0 0.0
2017-Sep-13 09:00N 34°37' E 135°23'0 0.0
2017-Sep-13 08:30N 34°37' E 135°23'0 0.0
2017-Sep-13 08:00N 34°37' E 135°23'0 0.0
2017-Sep-13 07:30N 34°37' E 135°23'0 0.0
2017-Sep-13 07:00N 34°37' E 135°23'2 3.3
2017-Sep-13 06:30N 34°39' E 135°22'612.0
2017-Sep-13 06:00N 34°40' E 135°15'0 0.5
2017-Sep-13 05:30N 34°40' E 135°14'0 0.5
2017-Sep-13 05:00N 34°40' E 135°15'1 2.5
2017-Sep-13 04:30N 34°40' E 135°13'0 0.1
2017-Sep-13 04:00N 34°40' E 135°13'0 0.0
2017-Sep-13 03:30N 34°40' E 135°13'0 0.0
2017-Sep-13 03:00N 34°40' E 135°13'0 0.0
2017-Sep-13 02:30N 34°40' E 135°13'0 0.0
2017-Sep-13 02:00N 34°40' E 135°13'0 0.0
2017-Sep-13 01:30N 34°40' E 135°13'0 0.0
2017-Sep-13 01:00N 34°40' E 135°13'0 0.0
2017-Sep-13 00:30N 34°40' E 135°13'0 0.0
2017-Sep-13 00:00N 34°40' E 135°13'0 0.0
2017-Sep-12 23:30N 34°40' E 135°13'0 0.0
2017-Sep-12 23:00N 34°40' E 135°13'2 3.8
2017-Sep-12 22:30N 34°39' E 135°15'0 0.2
2017-Sep-12 22:00N 34°39' E 135°15'0 0.0
2017-Sep-12 21:30N 34°39' E 135°15'0 0.1
2017-Sep-12 21:00N 34°39' E 135°15'0 0.0
2017-Sep-12 20:30N 34°39' E 135°15'0 0.1
2017-Sep-12 20:00N 34°39' E 135°15'0 0.0
2017-Sep-12 19:30N 34°39' E 135°15'0 0.0
2017-Sep-12 19:00N 34°39' E 135°15'0 0.1
2017-Sep-12 18:30N 34°39' E 135°15'510.4
2017-Sep-12 18:00N 34°36' E 135°10'611.7
2017-Sep-12 17:30N 34°36' E 135°02'611.6
2017-Sep-12 17:00N 34°36' E 134°56'2 0.1
2017-Sep-11 04:20N 34°36' E 134°53'513.6
2017-Sep-11 03:59N 34°37' E 134°58'613.3
2017-Sep-11 03:30N 34°36' E 135°06'613.0
2017-Sep-11 03:00N 34°37' E 135°13'2 4.1
2017-Sep-11 02:30N 34°39' E 135°15'0 0.3
2017-Sep-11 02:00N 34°39' E 135°15'0 0.0
2017-Sep-11 01:30N 34°39' E 135°15'0 0.5
2017-Sep-11 01:00N 34°39' E 135°15'0 0.5
2017-Sep-11 00:30N 34°39' E 135°15'2 3.9
2017-Sep-11 00:00N 34°41' E 135°17'0 0.0
2017-Sep-10 23:30N 34°41' E 135°17'2 3.4
2017-Sep-10 23:01N 34°41' E 135°15'1 2.4
2017-Sep-10 22:30N 34°40' E 135°13'0 0.0
2017-Sep-10 22:00N 34°40' E 135°13'0 0.0
2017-Sep-10 21:30N 34°40' E 135°13'0 0.0
2017-Sep-10 21:00N 34°40' E 135°13'0 0.0
2017-Sep-10 20:30N 34°40' E 135°13'0 0.0
2017-Sep-10 20:00N 34°40' E 135°13'0 0.0
2017-Sep-10 19:30N 34°40' E 135°13'0 0.0
2017-Sep-10 19:00N 34°40' E 135°13'0 0.0
2017-Sep-10 18:30N 34°40' E 135°13'0 0.0
2017-Sep-10 18:00N 34°40' E 135°13'0 0.0
2017-Sep-10 17:30N 34°40' E 135°13'0 0.0
2017-Sep-10 17:00N 34°40' E 135°13'0 0.0
2017-Sep-10 16:30N 34°40' E 135°13'0 0.0
2017-Sep-10 16:00N 34°40' E 135°13'0 0.0
2017-Sep-10 15:30N 34°40' E 135°13'0 0.0
2017-Sep-10 15:00N 34°40' E 135°13'0 0.0
2017-Sep-10 14:00N 34°40' E 135°13'0 0.0
2017-Sep-10 13:30N 34°40' E 135°13'0 0.0
2017-Sep-10 13:00N 34°40' E 135°13'0 0.0
2017-Sep-10 12:30N 34°40' E 135°13'0 0.0
2017-Sep-10 12:00N 34°40' E 135°13'0 0.0
2017-Sep-10 11:30N 34°40' E 135°13'0 0.0
2017-Sep-10 11:00N 34°40' E 135°13'0 0.0
2017-Sep-10 10:30N 34°40' E 135°13'0 0.0
2017-Sep-10 10:00N 34°40' E 135°13'0 0.0
2017-Sep-10 09:30N 34°40' E 135°13'0 0.0
2017-Sep-10 09:00N 34°40' E 135°13'0 0.0
2017-Sep-10 08:30N 34°40' E 135°13'0 0.0
2017-Sep-10 08:00N 34°40' E 135°13'0 0.0
2017-Sep-10 07:30N 34°40' E 135°13'0 0.0
2017-Sep-10 07:00N 34°40' E 135°13'0 0.0
2017-Sep-10 06:30N 34°40' E 135°13'0 0.0
2017-Sep-10 06:00N 34°40' E 135°13'0 0.0
2017-Sep-10 05:30N 34°40' E 135°13'0 0.0
2017-Sep-10 05:00N 34°40' E 135°13'0 0.0
2017-Sep-10 04:30N 34°40' E 135°13'0 0.0
2017-Sep-10 04:00N 34°40' E 135°13'0 0.0
2017-Sep-10 03:30N 34°40' E 135°13'0 0.0
2017-Sep-10 03:00N 34°40' E 135°13'0 0.0
2017-Sep-10 02:30N 34°40' E 135°13'0 0.0
2017-Sep-10 02:00N 34°40' E 135°13'0 0.0
2017-Sep-10 01:30N 34°40' E 135°13'2 3.7
2017-Sep-10 01:01N 34°39' E 135°15'611.2
2017-Sep-10 00:30N 34°36' E 135°09'510.7
2017-Sep-10 00:00N 34°36' E 135°03'6 9.4
2017-Sep-09 23:25N 34°36' E 134°56'  

Dump ship's entire track history